sensor_id;sensor_type;location;lat;lon;timestamp;temperature;humidity
7894;DHT22;51343;51.396;6.656;2023-12-28T00:00:04;9.50;1.00
7894;DHT22;51343;51.396;6.656;2023-12-28T00:02:30;9.50;1.00
7894;DHT22;51343;51.396;6.656;2023-12-28T00:04:57;9.50;99.90
7894;DHT22;51343;51.396;6.656;2023-12-28T00:07:24;9.50;99.90
7894;DHT22;51343;51.396;6.656;2023-12-28T00:09:52;9.60;1.00
7894;DHT22;51343;51.396;6.656;2023-12-28T00:12:19;9.70;99.90
7894;DHT22;51343;51.396;6.656;2023-12-28T00:14:47;9.60;99.90
7894;DHT22;51343;51.396;6.656;2023-12-28T00:17:14;9.60;1.00
7894;DHT22;51343;51.396;6.656;2023-12-28T00:19:41;9.70;99.90
7894;DHT22;51343;51.396;6.656;2023-12-28T00:22:07;9.70;20.20
7894;DHT22;51343;51.396;6.656;2023-12-28T00:24:34;9.70;99.90
7894;DHT22;51343;51.396;6.656;2023-12-28T00:27:02;9.80;1.00
7894;DHT22;51343;51.396;6.656;2023-12-28T00:29:29;9.70;99.90
7894;DHT22;51343;51.396;6.656;2023-12-28T00:31:56;9.70;99.90
7894;DHT22;51343;51.396;6.656;2023-12-28T00:34:22;9.70;99.90
7894;DHT22;51343;51.396;6.656;2023-12-28T00:36:49;9.70;1.00
7894;DHT22;51343;51.396;6.656;2023-12-28T00:39:16;9.80;48.40
7894;DHT22;51343;51.396;6.656;2023-12-28T00:41:44;9.70;99.90
7894;DHT22;51343;51.396;6.656;2023-12-28T00:44:14;9.70;99.90
7894;DHT22;51343;51.396;6.656;2023-12-28T00:46:41;9.70;1.00
7894;DHT22;51343;51.396;6.656;2023-12-28T00:49:08;9.70;95.90
7894;DHT22;51343;51.396;6.656;2023-12-28T00:51:34;9.70;1.00
7894;DHT22;51343;51.396;6.656;2023-12-28T00:54:02;9.70;99.90
7894;DHT22;51343;51.396;6.656;2023-12-28T00:56:29;9.70;99.90
7894;DHT22;51343;51.396;6.656;2023-12-28T00:58:55;9.60;99.90
7894;DHT22;51343;51.396;6.656;2023-12-28T01:01:23;9.60;1.00
7894;DHT22;51343;51.396;6.656;2023-12-28T01:03:50;9.60;1.00
7894;DHT22;51343;51.396;6.656;2023-12-28T01:06:17;9.70;1.00
7894;DHT22;51343;51.396;6.656;2023-12-28T01:08:46;9.60;49.30
7894;DHT22;51343;51.396;6.656;2023-12-28T01:11:16;9.60;39.10
7894;DHT22;51343;51.396;6.656;2023-12-28T01:13:43;9.60;1.00
7894;DHT22;51343;51.396;6.656;2023-12-28T01:16:11;9.60;99.90
7894;DHT22;51343;51.396;6.656;2023-12-28T01:18:40;9.60;99.90
7894;DHT22;51343;51.396;6.656;2023-12-28T01:21:06;9.60;99.90
7894;DHT22;51343;51.396;6.656;2023-12-28T01:23:33;9.60;99.90
7894;DHT22;51343;51.396;6.656;2023-12-28T01:26:00;9.70;99.90
7894;DHT22;51343;51.396;6.656;2023-12-28T01:28:26;9.70;99.90
7894;DHT22;51343;51.396;6.656;2023-12-28T01:30:53;9.60;1.00
7894;DHT22;51343;51.396;6.656;2023-12-28T01:33:20;9.60;1.00
7894;DHT22;51343;51.396;6.656;2023-12-28T01:35:48;9.50;23.50
7894;DHT22;51343;51.396;6.656;2023-12-28T01:38:14;9.60;99.90
7894;DHT22;51343;51.396;6.656;2023-12-28T01:40:43;9.50;1.00
7894;DHT22;51343;51.396;6.656;2023-12-28T01:43:10;9.50;1.00
7894;DHT22;51343;51.396;6.656;2023-12-28T01:45:37;9.50;1.00
7894;DHT22;51343;51.396;6.656;2023-12-28T01:48:03;9.50;99.90
7894;DHT22;51343;51.396;6.656;2023-12-28T01:50:30;9.50;24.00
7894;DHT22;51343;51.396;6.656;2023-12-28T01:53:00;9.50;1.00
7894;DHT22;51343;51.396;6.656;2023-12-28T01:55:27;9.50;1.00
7894;DHT22;51343;51.396;6.656;2023-12-28T01:57:54;9.50;99.90
7894;DHT22;51343;51.396;6.656;2023-12-28T02:00:21;9.60;95.20
7894;DHT22;51343;51.396;6.656;2023-12-28T02:02:48;9.60;1.00
7894;DHT22;51343;51.396;6.656;2023-12-28T02:05:15;9.60;1.00
7894;DHT22;51343;51.396;6.656;2023-12-28T02:07:41;9.70;1.00
7894;DHT22;51343;51.396;6.656;2023-12-28T02:10:09;9.60;1.00
7894;DHT22;51343;51.396;6.656;2023-12-28T02:12:36;9.60;99.90
7894;DHT22;51343;51.396;6.656;2023-12-28T02:15:03;9.60;99.90
7894;DHT22;51343;51.396;6.656;2023-12-28T02:17:30;9.60;99.90
7894;DHT22;51343;51.396;6.656;2023-12-28T02:19:59;9.60;1.00
7894;DHT22;51343;51.396;6.656;2023-12-28T02:22:31;9.60;1.00
7894;DHT22;51343;51.396;6.656;2023-12-28T02:25:08;9.60;1.00
7894;DHT22;51343;51.396;6.656;2023-12-28T02:27:38;9.70;1.00
7894;DHT22;51343;51.396;6.656;2023-12-28T02:30:05;9.70;99.90
7894;DHT22;51343;51.396;6.656;2023-12-28T02:32:35;9.80;1.00
7894;DHT22;51343;51.396;6.656;2023-12-28T02:35:05;9.90;99.90
7894;DHT22;51343;51.396;6.656;2023-12-28T02:37:33;9.90;1.00
7894;DHT22;51343;51.396;6.656;2023-12-28T02:40:00;10.00;99.90
7894;DHT22;51343;51.396;6.656;2023-12-28T02:42:29;10.00;99.90
7894;DHT22;51343;51.396;6.656;2023-12-28T02:44:55;10.00;1.00
7894;DHT22;51343;51.396;6.656;2023-12-28T02:47:22;10.00;99.90
7894;DHT22;51343;51.396;6.656;2023-12-28T02:49:48;10.10;1.00
7894;DHT22;51343;51.396;6.656;2023-12-28T02:52:15;10.20;1.00
7894;DHT22;51343;51.396;6.656;2023-12-28T02:54:42;10.30;99.90
7894;DHT22;51343;51.396;6.656;2023-12-28T02:57:09;10.30;1.00
7894;DHT22;51343;51.396;6.656;2023-12-28T02:59:37;10.40;1.00
7894;DHT22;51343;51.396;6.656;2023-12-28T03:02:05;10.40;1.00
7894;DHT22;51343;51.396;6.656;2023-12-28T03:04:31;10.40;1.00
7894;DHT22;51343;51.396;6.656;2023-12-28T03:06:58;10.40;99.90
7894;DHT22;51343;51.396;6.656;2023-12-28T03:09:24;10.40;36.80
7894;DHT22;51343;51.396;6.656;2023-12-28T03:11:51;10.50;1.00
7894;DHT22;51343;51.396;6.656;2023-12-28T03:14:18;10.40;42.80
7894;DHT22;51343;51.396;6.656;2023-12-28T03:16:47;10.30;99.90
7894;DHT22;51343;51.396;6.656;2023-12-28T03:19:14;10.40;51.10
7894;DHT22;51343;51.396;6.656;2023-12-28T03:21:41;10.30;99.90
7894;DHT22;51343;51.396;6.656;2023-12-28T03:24:07;10.30;1.00
7894;DHT22;51343;51.396;6.656;2023-12-28T03:26:37;10.20;1.00
7894;DHT22;51343;51.396;6.656;2023-12-28T03:29:04;10.20;1.00
7894;DHT22;51343;51.396;6.656;2023-12-28T03:31:31;10.20;1.00
7894;DHT22;51343;51.396;6.656;2023-12-28T03:33:59;10.20;1.00
7894;DHT22;51343;51.396;6.656;2023-12-28T03:36:26;10.20;7.50
7894;DHT22;51343;51.396;6.656;2023-12-28T03:38:53;10.10;1.00
7894;DHT22;51343;51.396;6.656;2023-12-28T03:41:19;10.10;1.00
7894;DHT22;51343;51.396;6.656;2023-12-28T03:43:46;10.10;99.90
7894;DHT22;51343;51.396;6.656;2023-12-28T03:46:13;10.00;1.00
7894;DHT22;51343;51.396;6.656;2023-12-28T03:48:40;10.00;1.00
7894;DHT22;51343;51.396;6.656;2023-12-28T03:51:08;10.00;99.90
7894;DHT22;51343;51.396;6.656;2023-12-28T03:53:39;10.00;99.90
7894;DHT22;51343;51.396;6.656;2023-12-28T03:56:06;9.90;1.00
7894;DHT22;51343;51.396;6.656;2023-12-28T03:58:33;9.90;1.00
7894;DHT22;51343;51.396;6.656;2023-12-28T04:00:59;9.90;1.00
7894;DHT22;51343;51.396;6.656;2023-12-28T04:03:26;9.90;99.90
7894;DHT22;51343;51.396;6.656;2023-12-28T04:05:53;9.80;1.00
7894;DHT22;51343;51.396;6.656;2023-12-28T04:08:21;9.80;1.00
7894;DHT22;51343;51.396;6.656;2023-12-28T04:10:48;9.80;1.00
7894;DHT22;51343;51.396;6.656;2023-12-28T04:13:14;9.80;1.00
7894;DHT22;51343;51.396;6.656;2023-12-28T04:15:41;9.80;99.90
7894;DHT22;51343;51.396;6.656;2023-12-28T04:18:08;9.70;99.90
7894;DHT22;51343;51.396;6.656;2023-12-28T04:20:34;9.80;99.90
7894;DHT22;51343;51.396;6.656;2023-12-28T04:23:01;9.80;1.00
7894;DHT22;51343;51.396;6.656;2023-12-28T04:25:29;9.80;1.00
7894;DHT22;51343;51.396;6.656;2023-12-28T04:27:56;9.80;1.00
7894;DHT22;51343;51.396;6.656;2023-12-28T04:30:22;9.80;1.00
7894;DHT22;51343;51.396;6.656;2023-12-28T04:32:49;9.70;99.90
7894;DHT22;51343;51.396;6.656;2023-12-28T04:35:15;9.70;99.90
7894;DHT22;51343;51.396;6.656;2023-12-28T04:37:42;9.70;99.90
7894;DHT22;51343;51.396;6.656;2023-12-28T04:40:09;9.80;1.00
7894;DHT22;51343;51.396;6.656;2023-12-28T04:42:37;9.70;1.00
7894;DHT22;51343;51.396;6.656;2023-12-28T04:45:04;9.70;1.00
7894;DHT22;51343;51.396;6.656;2023-12-28T04:47:31;9.70;1.00
7894;DHT22;51343;51.396;6.656;2023-12-28T04:49:57;9.70;1.00
7894;DHT22;51343;51.396;6.656;2023-12-28T04:52:24;9.70;1.00
7894;DHT22;51343;51.396;6.656;2023-12-28T04:54:51;9.70;99.90
7894;DHT22;51343;51.396;6.656;2023-12-28T04:57:17;9.70;99.90
7894;DHT22;51343;51.396;6.656;2023-12-28T04:59:45;9.70;99.90
7894;DHT22;51343;51.396;6.656;2023-12-28T05:02:12;9.70;99.90
7894;DHT22;51343;51.396;6.656;2023-12-28T05:04:38;9.70;1.00
7894;DHT22;51343;51.396;6.656;2023-12-28T05:07:05;9.70;1.00
7894;DHT22;51343;51.396;6.656;2023-12-28T05:09:32;9.70;99.90
7894;DHT22;51343;51.396;6.656;2023-12-28T05:11:58;9.70;99.90
7894;DHT22;51343;51.396;6.656;2023-12-28T05:14:25;9.70;99.90
7894;DHT22;51343;51.396;6.656;2023-12-28T05:16:53;9.70;1.00
7894;DHT22;51343;51.396;6.656;2023-12-28T05:19:20;9.80;99.90
7894;DHT22;51343;51.396;6.656;2023-12-28T05:21:46;9.70;99.90
7894;DHT22;51343;51.396;6.656;2023-12-28T05:24:13;9.70;1.00
7894;DHT22;51343;51.396;6.656;2023-12-28T05:26:40;9.70;99.90
7894;DHT22;51343;51.396;6.656;2023-12-28T05:29:06;9.80;99.90
7894;DHT22;51343;51.396;6.656;2023-12-28T05:31:33;9.80;1.00
7894;DHT22;51343;51.396;6.656;2023-12-28T05:34:01;9.80;1.00
7894;DHT22;51343;51.396;6.656;2023-12-28T05:36:28;9.80;99.90
7894;DHT22;51343;51.396;6.656;2023-12-28T05:38:55;9.80;99.90
7894;DHT22;51343;51.396;6.656;2023-12-28T05:41:21;9.80;99.90
7894;DHT22;51343;51.396;6.656;2023-12-28T05:43:48;9.80;99.90
7894;DHT22;51343;51.396;6.656;2023-12-28T05:46:14;9.80;99.90
7894;DHT22;51343;51.396;6.656;2023-12-28T05:48:41;9.80;99.90
7894;DHT22;51343;51.396;6.656;2023-12-28T05:51:09;9.80;56.00
7894;DHT22;51343;51.396;6.656;2023-12-28T05:53:35;9.80;1.00
7894;DHT22;51343;51.396;6.656;2023-12-28T05:56:02;9.90;1.00
7894;DHT22;51343;51.396;6.656;2023-12-28T05:58:29;9.80;1.00
7894;DHT22;51343;51.396;6.656;2023-12-28T06:00:56;9.80;1.00
7894;DHT22;51343;51.396;6.656;2023-12-28T06:03:22;9.80;76.30
7894;DHT22;51343;51.396;6.656;2023-12-28T06:05:53;9.90;1.00
7894;DHT22;51343;51.396;6.656;2023-12-28T06:08:21;9.90;1.00
7894;DHT22;51343;51.396;6.656;2023-12-28T06:10:48;9.90;99.90
7894;DHT22;51343;51.396;6.656;2023-12-28T06:13:14;9.90;99.90
7894;DHT22;51343;51.396;6.656;2023-12-28T06:15:41;9.90;99.90
7894;DHT22;51343;51.396;6.656;2023-12-28T06:18:09;9.90;99.90
7894;DHT22;51343;51.396;6.656;2023-12-28T06:20:35;9.80;97.40
7894;DHT22;51343;51.396;6.656;2023-12-28T06:23:02;9.90;52.70
7894;DHT22;51343;51.396;6.656;2023-12-28T06:25:30;9.80;99.90
7894;DHT22;51343;51.396;6.656;2023-12-28T06:27:57;9.80;1.00
7894;DHT22;51343;51.396;6.656;2023-12-28T06:30:24;9.90;1.00
7894;DHT22;51343;51.396;6.656;2023-12-28T06:32:50;9.90;99.90
7894;DHT22;51343;51.396;6.656;2023-12-28T06:35:17;10.00;99.90
7894;DHT22;51343;51.396;6.656;2023-12-28T06:37:43;10.00;11.00
7894;DHT22;51343;51.396;6.656;2023-12-28T06:40:11;10.00;1.00
7894;DHT22;51343;51.396;6.656;2023-12-28T06:42:39;9.90;1.00
7894;DHT22;51343;51.396;6.656;2023-12-28T06:45:08;9.90;1.00
7894;DHT22;51343;51.396;6.656;2023-12-28T06:47:35;9.90;1.00
7894;DHT22;51343;51.396;6.656;2023-12-28T06:50:02;9.90;99.90
7894;DHT22;51343;51.396;6.656;2023-12-28T06:52:29;10.00;1.00
7894;DHT22;51343;51.396;6.656;2023-12-28T06:54:56;10.00;1.00
7894;DHT22;51343;51.396;6.656;2023-12-28T06:57:23;10.00;1.00
7894;DHT22;51343;51.396;6.656;2023-12-28T06:59:51;10.00;1.00
7894;DHT22;51343;51.396;6.656;2023-12-28T07:02:19;10.00;99.90
7894;DHT22;51343;51.396;6.656;2023-12-28T07:04:46;10.00;99.90
7894;DHT22;51343;51.396;6.656;2023-12-28T07:07:12;10.10;99.90
7894;DHT22;51343;51.396;6.656;2023-12-28T07:09:39;10.10;28.10
7894;DHT22;51343;51.396;6.656;2023-12-28T07:12:06;10.20;1.00
7894;DHT22;51343;51.396;6.656;2023-12-28T07:14:32;10.20;1.00
7894;DHT22;51343;51.396;6.656;2023-12-28T07:17:03;10.20;1.00
7894;DHT22;51343;51.396;6.656;2023-12-28T07:19:29;10.20;1.00
7894;DHT22;51343;51.396;6.656;2023-12-28T07:21:56;10.20;1.00
7894;DHT22;51343;51.396;6.656;2023-12-28T07:24:23;10.20;1.00
7894;DHT22;51343;51.396;6.656;2023-12-28T07:26:49;10.20;1.00
7894;DHT22;51343;51.396;6.656;2023-12-28T07:29:16;10.20;1.00
7894;DHT22;51343;51.396;6.656;2023-12-28T07:31:43;10.30;1.00
7894;DHT22;51343;51.396;6.656;2023-12-28T07:34:11;10.20;99.90
7894;DHT22;51343;51.396;6.656;2023-12-28T07:36:37;10.30;99.90
7894;DHT22;51343;51.396;6.656;2023-12-28T07:39:06;10.30;99.90
7894;DHT22;51343;51.396;6.656;2023-12-28T07:41:32;10.40;99.90
7894;DHT22;51343;51.396;6.656;2023-12-28T07:43:59;10.40;99.90
7894;DHT22;51343;51.396;6.656;2023-12-28T07:46:26;10.40;99.90
7894;DHT22;51343;51.396;6.656;2023-12-28T07:48:52;10.40;99.90
7894;DHT22;51343;51.396;6.656;2023-12-28T07:51:20;10.40;99.90
7894;DHT22;51343;51.396;6.656;2023-12-28T07:53:47;10.40;99.90
7894;DHT22;51343;51.396;6.656;2023-12-28T07:56:14;10.40;99.90
7894;DHT22;51343;51.396;6.656;2023-12-28T07:58:40;10.40;81.90
7894;DHT22;51343;51.396;6.656;2023-12-28T08:01:09;10.40;36.80
7894;DHT22;51343;51.396;6.656;2023-12-28T08:03:34;10.40;1.00
7894;DHT22;51343;51.396;6.656;2023-12-28T08:06:01;10.40;99.90
7894;DHT22;51343;51.396;6.656;2023-12-28T08:08:29;10.40;4.90
7894;DHT22;51343;51.396;6.656;2023-12-28T08:10:56;10.40;1.00
7894;DHT22;51343;51.396;6.656;2023-12-28T08:13:22;10.40;23.50
7894;DHT22;51343;51.396;6.656;2023-12-28T08:15:49;10.30;99.90
7894;DHT22;51343;51.396;6.656;2023-12-28T08:18:15;10.40;44.30
7894;DHT22;51343;51.396;6.656;2023-12-28T08:20:42;10.40;1.00
7894;DHT22;51343;51.396;6.656;2023-12-28T08:23:09;10.40;1.00
7894;DHT22;51343;51.396;6.656;2023-12-28T08:25:37;10.40;1.00
7894;DHT22;51343;51.396;6.656;2023-12-28T08:28:04;10.40;1.00
7894;DHT22;51343;51.396;6.656;2023-12-28T08:30:30;10.40;1.00
7894;DHT22;51343;51.396;6.656;2023-12-28T08:32:57;10.40;1.00
7894;DHT22;51343;51.396;6.656;2023-12-28T08:35:24;10.40;1.00
7894;DHT22;51343;51.396;6.656;2023-12-28T08:37:50;10.50;1.00
7894;DHT22;51343;51.396;6.656;2023-12-28T08:40:17;10.50;1.00
7894;DHT22;51343;51.396;6.656;2023-12-28T08:42:45;10.50;1.00
7894;DHT22;51343;51.396;6.656;2023-12-28T08:45:11;10.50;1.00
7894;DHT22;51343;51.396;6.656;2023-12-28T08:47:38;10.50;1.00
7894;DHT22;51343;51.396;6.656;2023-12-28T08:50:05;10.50;1.00
7894;DHT22;51343;51.396;6.656;2023-12-28T08:52:32;10.50;1.00
7894;DHT22;51343;51.396;6.656;2023-12-28T08:54:58;10.50;1.00
7894;DHT22;51343;51.396;6.656;2023-12-28T08:57:26;10.50;1.00
7894;DHT22;51343;51.396;6.656;2023-12-28T08:59:54;10.50;1.00
7894;DHT22;51343;51.396;6.656;2023-12-28T09:02:21;10.50;1.00
7894;DHT22;51343;51.396;6.656;2023-12-28T09:04:48;10.60;1.00
7894;DHT22;51343;51.396;6.656;2023-12-28T09:07:15;10.60;1.00
7894;DHT22;51343;51.396;6.656;2023-12-28T09:09:42;10.60;1.00
7894;DHT22;51343;51.396;6.656;2023-12-28T09:12:08;10.60;1.00
7894;DHT22;51343;51.396;6.656;2023-12-28T09:14:36;10.60;1.00
7894;DHT22;51343;51.396;6.656;2023-12-28T09:17:04;10.70;99.90
7894;DHT22;51343;51.396;6.656;2023-12-28T09:19:30;10.70;99.90
7894;DHT22;51343;51.396;6.656;2023-12-28T09:21:57;10.70;99.90
7894;DHT22;51343;51.396;6.656;2023-12-28T09:24:24;10.70;99.90
7894;DHT22;51343;51.396;6.656;2023-12-28T09:26:50;10.70;99.90
7894;DHT22;51343;51.396;6.656;2023-12-28T09:29:18;10.70;99.90
7894;DHT22;51343;51.396;6.656;2023-12-28T09:31:45;10.80;99.90
7894;DHT22;51343;51.396;6.656;2023-12-28T09:34:13;10.80;99.90
7894;DHT22;51343;51.396;6.656;2023-12-28T09:36:40;10.80;99.90
7894;DHT22;51343;51.396;6.656;2023-12-28T09:39:06;10.90;40.70
7894;DHT22;51343;51.396;6.656;2023-12-28T09:41:35;10.90;57.20
7894;DHT22;51343;51.396;6.656;2023-12-28T09:44:05;10.90;1.00
7894;DHT22;51343;51.396;6.656;2023-12-28T09:46:33;10.90;1.00
7894;DHT22;51343;51.396;6.656;2023-12-28T09:49:01;11.00;1.00
7894;DHT22;51343;51.396;6.656;2023-12-28T09:51:29;11.00;1.00
7894;DHT22;51343;51.396;6.656;2023-12-28T09:53:56;11.00;1.00
7894;DHT22;51343;51.396;6.656;2023-12-28T09:56:23;11.10;1.00
7894;DHT22;51343;51.396;6.656;2023-12-28T09:58:50;11.10;1.00
7894;DHT22;51343;51.396;6.656;2023-12-28T10:01:17;11.20;1.00
7894;DHT22;51343;51.396;6.656;2023-12-28T10:03:44;11.20;1.00
7894;DHT22;51343;51.396;6.656;2023-12-28T10:06:10;11.30;1.00
7894;DHT22;51343;51.396;6.656;2023-12-28T10:08:46;11.40;1.00
7894;DHT22;51343;51.396;6.656;2023-12-28T10:11:13;11.40;1.00
7894;DHT22;51343;51.396;6.656;2023-12-28T10:13:41;11.40;99.90
7894;DHT22;51343;51.396;6.656;2023-12-28T10:16:09;11.40;99.90
7894;DHT22;51343;51.396;6.656;2023-12-28T10:18:36;11.30;99.90
7894;DHT22;51343;51.396;6.656;2023-12-28T10:21:02;11.30;99.90
7894;DHT22;51343;51.396;6.656;2023-12-28T10:23:29;11.20;99.90
7894;DHT22;51343;51.396;6.656;2023-12-28T10:25:57;11.30;99.90
7894;DHT22;51343;51.396;6.656;2023-12-28T10:28:25;11.30;99.90
7894;DHT22;51343;51.396;6.656;2023-12-28T10:30:54;11.20;99.90
7894;DHT22;51343;51.396;6.656;2023-12-28T10:33:20;11.30;99.90
7894;DHT22;51343;51.396;6.656;2023-12-28T10:35:47;11.30;1.00
7894;DHT22;51343;51.396;6.656;2023-12-28T10:38:15;11.30;1.00
7894;DHT22;51343;51.396;6.656;2023-12-28T10:40:42;11.30;1.00
7894;DHT22;51343;51.396;6.656;2023-12-28T10:43:14;11.30;1.00
7894;DHT22;51343;51.396;6.656;2023-12-28T10:45:42;11.30;1.00
7894;DHT22;51343;51.396;6.656;2023-12-28T10:48:12;11.30;99.90
7894;DHT22;51343;51.396;6.656;2023-12-28T10:50:39;11.30;1.00
7894;DHT22;51343;51.396;6.656;2023-12-28T10:53:14;11.40;1.00
7894;DHT22;51343;51.396;6.656;2023-12-28T10:55:44;11.30;99.90
7894;DHT22;51343;51.396;6.656;2023-12-28T10:58:16;11.40;1.00
7894;DHT22;51343;51.396;6.656;2023-12-28T11:00:46;11.40;1.00
7894;DHT22;51343;51.396;6.656;2023-12-28T11:03:15;11.50;1.00
7894;DHT22;51343;51.396;6.656;2023-12-28T11:05:44;11.50;99.90
7894;DHT22;51343;51.396;6.656;2023-12-28T11:08:12;11.50;99.90
7894;DHT22;51343;51.396;6.656;2023-12-28T11:10:40;11.50;99.90
7894;DHT22;51343;51.396;6.656;2023-12-28T11:13:07;11.50;99.90
7894;DHT22;51343;51.396;6.656;2023-12-28T11:15:36;11.40;1.00
7894;DHT22;51343;51.396;6.656;2023-12-28T11:18:04;11.40;99.90
7894;DHT22;51343;51.396;6.656;2023-12-28T11:20:31;11.40;99.90
7894;DHT22;51343;51.396;6.656;2023-12-28T11:22:57;11.40;99.90
7894;DHT22;51343;51.396;6.656;2023-12-28T11:25:25;11.40;99.90
7894;DHT22;51343;51.396;6.656;2023-12-28T11:27:59;11.30;99.90
7894;DHT22;51343;51.396;6.656;2023-12-28T11:30:26;11.30;99.90
7894;DHT22;51343;51.396;6.656;2023-12-28T11:32:57;11.40;99.90
7894;DHT22;51343;51.396;6.656;2023-12-28T11:35:24;11.40;99.90
7894;DHT22;51343;51.396;6.656;2023-12-28T11:37:58;11.50;99.90
7894;DHT22;51343;51.396;6.656;2023-12-28T11:40:28;11.50;99.90
7894;DHT22;51343;51.396;6.656;2023-12-28T11:42:55;11.50;99.90
7894;DHT22;51343;51.396;6.656;2023-12-28T11:45:22;11.50;99.90
7894;DHT22;51343;51.396;6.656;2023-12-28T11:47:59;11.50;99.90
7894;DHT22;51343;51.396;6.656;2023-12-28T11:50:26;11.50;99.90
7894;DHT22;51343;51.396;6.656;2023-12-28T11:52:53;11.50;99.90
7894;DHT22;51343;51.396;6.656;2023-12-28T11:55:20;11.50;99.90
7894;DHT22;51343;51.396;6.656;2023-12-28T11:57:47;11.50;99.90
7894;DHT22;51343;51.396;6.656;2023-12-28T12:00:14;11.50;99.90
7894;DHT22;51343;51.396;6.656;2023-12-28T12:02:43;11.50;99.90
7894;DHT22;51343;51.396;6.656;2023-12-28T12:05:11;11.60;99.90
7894;DHT22;51343;51.396;6.656;2023-12-28T12:07:38;11.60;99.90
7894;DHT22;51343;51.396;6.656;2023-12-28T12:10:05;11.60;99.90
7894;DHT22;51343;51.396;6.656;2023-12-28T12:12:32;11.60;99.90
7894;DHT22;51343;51.396;6.656;2023-12-28T12:14:59;11.60;99.90
7894;DHT22;51343;51.396;6.656;2023-12-28T12:17:26;11.60;99.90
7894;DHT22;51343;51.396;6.656;2023-12-28T12:19:53;11.60;99.90
7894;DHT22;51343;51.396;6.656;2023-12-28T12:22:22;11.60;99.90
7894;DHT22;51343;51.396;6.656;2023-12-28T12:24:48;11.60;99.90
7894;DHT22;51343;51.396;6.656;2023-12-28T12:27:17;11.60;99.90
7894;DHT22;51343;51.396;6.656;2023-12-28T12:29:43;11.70;99.90
7894;DHT22;51343;51.396;6.656;2023-12-28T12:32:10;11.60;99.90
7894;DHT22;51343;51.396;6.656;2023-12-28T12:34:37;11.70;99.90
7894;DHT22;51343;51.396;6.656;2023-12-28T12:37:04;11.70;99.90
7894;DHT22;51343;51.396;6.656;2023-12-28T12:39:32;11.70;99.60
7894;DHT22;51343;51.396;6.656;2023-12-28T12:41:59;11.70;99.90
7894;DHT22;51343;51.396;6.656;2023-12-28T12:44:25;11.70;99.90
7894;DHT22;51343;51.396;6.656;2023-12-28T12:46:56;11.70;99.90
7894;DHT22;51343;51.396;6.656;2023-12-28T12:49:23;11.70;99.90
7894;DHT22;51343;51.396;6.656;2023-12-28T12:51:50;11.60;99.90
7894;DHT22;51343;51.396;6.656;2023-12-28T12:54:17;11.70;99.90
7894;DHT22;51343;51.396;6.656;2023-12-28T12:56:46;11.70;99.90
7894;DHT22;51343;51.396;6.656;2023-12-28T12:59:13;11.60;78.30
7894;DHT22;51343;51.396;6.656;2023-12-28T13:01:41;11.60;99.90
7894;DHT22;51343;51.396;6.656;2023-12-28T13:04:08;11.70;99.90
7894;DHT22;51343;51.396;6.656;2023-12-28T13:06:35;11.70;99.90
7894;DHT22;51343;51.396;6.656;2023-12-28T13:09:01;11.70;99.90
7894;DHT22;51343;51.396;6.656;2023-12-28T13:11:32;11.70;29.80
7894;DHT22;51343;51.396;6.656;2023-12-28T13:14:00;11.80;58.30
7894;DHT22;51343;51.396;6.656;2023-12-28T13:16:26;11.70;86.50
7894;DHT22;51343;51.396;6.656;2023-12-28T13:18:53;11.70;36.50
7894;DHT22;51343;51.396;6.656;2023-12-28T13:21:19;11.70;31.00
7894;DHT22;51343;51.396;6.656;2023-12-28T13:23:46;11.70;45.40
7894;DHT22;51343;51.396;6.656;2023-12-28T13:26:13;11.70;24.50
7894;DHT22;51343;51.396;6.656;2023-12-28T13:28:40;11.70;27.40
7894;DHT22;51343;51.396;6.656;2023-12-28T13:31:09;11.70;1.00
7894;DHT22;51343;51.396;6.656;2023-12-28T13:33:35;11.70;12.00
7894;DHT22;51343;51.396;6.656;2023-12-28T13:36:02;11.70;1.00
7894;DHT22;51343;51.396;6.656;2023-12-28T13:38:29;11.70;1.00
7894;DHT22;51343;51.396;6.656;2023-12-28T13:40:56;11.60;51.30
7894;DHT22;51343;51.396;6.656;2023-12-28T13:43:23;11.70;1.00
7894;DHT22;51343;51.396;6.656;2023-12-28T13:45:50;11.70;1.00
7894;DHT22;51343;51.396;6.656;2023-12-28T13:48:18;11.60;1.00
7894;DHT22;51343;51.396;6.656;2023-12-28T13:50:44;11.60;1.00
7894;DHT22;51343;51.396;6.656;2023-12-28T13:53:11;11.60;1.00
7894;DHT22;51343;51.396;6.656;2023-12-28T13:55:37;11.60;1.00
7894;DHT22;51343;51.396;6.656;2023-12-28T13:58:04;11.60;1.00
7894;DHT22;51343;51.396;6.656;2023-12-28T14:00:31;11.60;1.00
7894;DHT22;51343;51.396;6.656;2023-12-28T14:02:57;11.60;1.00
7894;DHT22;51343;51.396;6.656;2023-12-28T14:05:25;11.60;1.00
7894;DHT22;51343;51.396;6.656;2023-12-28T14:07:52;11.50;1.00
7894;DHT22;51343;51.396;6.656;2023-12-28T14:10:19;11.50;1.00
7894;DHT22;51343;51.396;6.656;2023-12-28T14:12:45;11.50;1.00
7894;DHT22;51343;51.396;6.656;2023-12-28T14:15:12;11.50;1.00
7894;DHT22;51343;51.396;6.656;2023-12-28T14:17:40;11.50;1.00
7894;DHT22;51343;51.396;6.656;2023-12-28T14:20:07;11.50;1.00
7894;DHT22;51343;51.396;6.656;2023-12-28T14:22:38;11.40;1.00
7894;DHT22;51343;51.396;6.656;2023-12-28T14:25:05;11.40;1.00
7894;DHT22;51343;51.396;6.656;2023-12-28T14:27:32;11.40;1.00
7894;DHT22;51343;51.396;6.656;2023-12-28T14:29:59;11.40;1.00
7894;DHT22;51343;51.396;6.656;2023-12-28T14:32:29;11.30;1.00
7894;DHT22;51343;51.396;6.656;2023-12-28T14:34:55;11.40;1.00
7894;DHT22;51343;51.396;6.656;2023-12-28T14:37:22;11.40;1.00
7894;DHT22;51343;51.396;6.656;2023-12-28T14:39:50;11.30;1.00
7894;DHT22;51343;51.396;6.656;2023-12-28T14:42:17;11.30;1.00
7894;DHT22;51343;51.396;6.656;2023-12-28T14:44:43;11.30;1.00
7894;DHT22;51343;51.396;6.656;2023-12-28T14:47:10;11.30;1.00
7894;DHT22;51343;51.396;6.656;2023-12-28T14:49:37;11.30;1.00
7894;DHT22;51343;51.396;6.656;2023-12-28T14:52:03;11.20;1.00
7894;DHT22;51343;51.396;6.656;2023-12-28T14:54:30;11.20;1.00
7894;DHT22;51343;51.396;6.656;2023-12-28T14:56:58;11.30;1.00
7894;DHT22;51343;51.396;6.656;2023-12-28T14:59:24;11.30;1.00
7894;DHT22;51343;51.396;6.656;2023-12-28T15:01:51;11.30;1.00
7894;DHT22;51343;51.396;6.656;2023-12-28T15:04:18;11.20;1.00
7894;DHT22;51343;51.396;6.656;2023-12-28T15:06:44;11.20;1.00
7894;DHT22;51343;51.396;6.656;2023-12-28T15:09:11;11.20;1.00
7894;DHT22;51343;51.396;6.656;2023-12-28T15:11:38;11.10;1.00
7894;DHT22;51343;51.396;6.656;2023-12-28T15:14:06;11.00;1.00
7894;DHT22;51343;51.396;6.656;2023-12-28T15:16:33;10.90;9.70
7894;DHT22;51343;51.396;6.656;2023-12-28T15:19:00;10.90;26.80
7894;DHT22;51343;51.396;6.656;2023-12-28T15:21:27;10.90;47.10
7894;DHT22;51343;51.396;6.656;2023-12-28T15:23:54;10.90;52.60
7894;DHT22;51343;51.396;6.656;2023-12-28T15:26:21;10.80;94.20
7894;DHT22;51343;51.396;6.656;2023-12-28T15:28:47;10.80;99.90
7894;DHT22;51343;51.396;6.656;2023-12-28T15:31:15;10.80;99.90
7894;DHT22;51343;51.396;6.656;2023-12-28T15:33:42;10.80;99.90
7894;DHT22;51343;51.396;6.656;2023-12-28T15:36:09;10.80;99.90
7894;DHT22;51343;51.396;6.656;2023-12-28T15:38:35;10.80;99.90
7894;DHT22;51343;51.396;6.656;2023-12-28T15:41:02;10.80;99.90
7894;DHT22;51343;51.396;6.656;2023-12-28T15:43:29;10.80;99.90
7894;DHT22;51343;51.396;6.656;2023-12-28T15:45:56;10.80;99.90
7894;DHT22;51343;51.396;6.656;2023-12-28T15:51:08;10.90;99.90
7894;DHT22;51343;51.396;6.656;2023-12-28T15:53:35;10.80;99.90
7894;DHT22;51343;51.396;6.656;2023-12-28T15:56:02;10.90;85.70
7894;DHT22;51343;51.396;6.656;2023-12-28T15:58:28;10.90;83.50
7894;DHT22;51343;51.396;6.656;2023-12-28T16:00:55;10.90;52.20